createdAt,value
2023-03-29T00:01:35.699Z,2.22
2023-03-29T00:04:21.128Z,2.42
2023-03-29T00:07:06.616Z,2.00
2023-03-29T00:09:51.685Z,2.13
2023-03-29T00:15:22.153Z,1.90
2023-03-29T00:18:07.304Z,2.20
2023-03-29T00:20:57.206Z,2.33
2023-03-29T00:23:41.962Z,2.00
2023-03-29T00:26:26.646Z,2.30
2023-03-29T00:29:11.641Z,2.20
2023-03-29T00:31:56.776Z,2.00
2023-03-29T00:34:42.112Z,2.20
2023-03-29T00:37:29.348Z,2.08
2023-03-29T00:40:14.741Z,2.15
2023-03-29T00:43:00.017Z,1.83
2023-03-29T00:45:44.869Z,1.98
2023-03-29T00:48:30.781Z,1.73
2023-03-29T00:51:18.426Z,1.70
2023-03-29T00:54:07.392Z,2.03
2023-03-29T00:56:52.438Z,1.83
2023-03-29T01:02:26.847Z,2.13
2023-03-29T01:05:19.481Z,1.80
2023-03-29T01:08:25.142Z,2.00
2023-03-29T01:11:14.373Z,1.80
2023-03-29T01:14:11.613Z,2.00
2023-03-29T01:16:56.875Z,1.80
2023-03-29T01:19:51.248Z,1.80
2023-03-29T01:22:38.144Z,1.80
2023-03-29T01:25:45.252Z,1.80
2023-03-29T01:28:37.420Z,1.85
2023-03-29T01:31:32.193Z,1.95
2023-03-29T01:34:27.552Z,1.50
2023-03-29T01:37:23.968Z,1.70
2023-03-29T01:40:09.584Z,1.70
2023-03-29T01:43:10.990Z,1.77
2023-03-29T01:46:21.001Z,1.70
2023-03-29T01:49:20.506Z,1.67
2023-03-29T01:52:24.465Z,1.60
2023-03-29T01:55:17.830Z,2.13
2023-03-29T01:58:06.070Z,1.85
2023-03-29T02:00:55.778Z,2.17
2023-03-29T02:03:46.579Z,1.92
2023-03-29T02:06:33.424Z,1.85
2023-03-29T02:09:19.193Z,1.73
2023-03-29T02:12:07.827Z,1.80
2023-03-29T02:14:52.638Z,1.95
2023-03-29T02:17:37.644Z,2.30
2023-03-29T02:20:30.236Z,2.35
2023-03-29T02:23:20.861Z,2.00
2023-03-29T02:26:06.084Z,2.15
2023-03-29T02:31:55.881Z,2.28
2023-03-29T02:34:58.447Z,2.10
2023-03-29T02:37:48.872Z,2.33
2023-03-29T02:40:36.994Z,2.35
2023-03-29T02:43:26.027Z,2.40
2023-03-29T02:46:11.992Z,2.40
2023-03-29T02:48:58.367Z,2.03
2023-03-29T02:51:46.647Z,2.38
2023-03-29T02:54:32.422Z,2.30
2023-03-29T02:57:17.567Z,2.17
2023-03-29T03:00:04.665Z,2.25
2023-03-29T03:02:50.470Z,2.15
2023-03-29T03:05:35.608Z,2.30
2023-03-29T03:08:20.725Z,2.10
2023-03-29T03:11:06.461Z,1.85
2023-03-29T03:16:36.509Z,1.80
2023-03-29T03:19:21.615Z,2.00
2023-03-29T03:22:09.295Z,2.45
2023-03-29T03:24:55.488Z,2.00
2023-03-29T03:27:40.649Z,1.80
2023-03-29T03:30:25.413Z,2.20
2023-03-29T03:33:29.745Z,2.28
2023-03-29T03:36:43.677Z,2.17
2023-03-29T03:39:29.738Z,2.08
2023-03-29T03:45:01.193Z,2.35
2023-03-29T03:48:05.266Z,3.22
2023-03-29T03:51:02.872Z,2.10
2023-03-29T03:53:51.104Z,2.17
2023-03-29T03:56:55.790Z,2.33
2023-03-29T03:59:52.337Z,2.00
2023-03-29T04:02:47.583Z,1.70
2023-03-29T04:05:32.579Z,2.10
2023-03-29T04:11:25.326Z,2.03
2023-03-29T04:14:10.693Z,2.15
2023-03-29T04:17:18.157Z,1.90
2023-03-29T04:20:30.300Z,2.22
2023-03-29T04:23:17.722Z,2.10
2023-03-29T04:26:03.666Z,2.40
2023-03-29T04:29:00.751Z,2.50
2023-03-29T04:31:55.836Z,2.33
2023-03-29T04:35:00.996Z,2.72
2023-03-29T04:37:45.891Z,3.55
2023-03-29T04:40:33.605Z,2.38
2023-03-29T04:43:30.477Z,2.80
2023-03-29T04:46:42.332Z,3.78
2023-03-29T04:49:27.334Z,2.90
2023-03-29T04:52:13.992Z,2.72
2023-03-29T04:55:09.963Z,2.65
2023-03-29T04:58:23.695Z,2.30
2023-03-29T05:01:10.871Z,2.38
2023-03-29T05:04:01.893Z,2.13
2023-03-29T05:06:53.342Z,2.35
2023-03-29T05:09:38.478Z,2.53
2023-03-29T05:12:24.072Z,2.83
2023-03-29T05:15:10.810Z,2.63
2023-03-29T05:17:55.536Z,2.38
2023-03-29T05:20:41.531Z,1.90
2023-03-29T05:23:28.276Z,2.40
2023-03-29T05:26:25.872Z,2.90
2023-03-29T05:29:12.041Z,2.67
2023-03-29T05:32:03.613Z,2.22
2023-03-29T05:34:52.716Z,2.90
2023-03-29T05:37:40.580Z,3.33
2023-03-29T05:40:25.827Z,3.85
2023-03-29T05:43:31.129Z,3.17
2023-03-29T05:46:17.745Z,3.05
2023-03-29T05:49:11.563Z,2.47
2023-03-29T05:52:19.512Z,2.90
2023-03-29T05:57:50.292Z,2.30
2023-03-29T06:00:39.095Z,2.25
2023-03-29T06:03:43.578Z,2.30
2023-03-29T06:06:30.920Z,2.60
2023-03-29T06:09:16.890Z,2.58
2023-03-29T06:12:22.231Z,2.10
2023-03-29T06:15:15.575Z,2.67
2023-03-29T06:18:09.491Z,2.92
2023-03-29T06:20:55.553Z,2.97
2023-03-29T06:23:44.674Z,3.22
2023-03-29T06:26:29.999Z,2.67
2023-03-29T06:32:01.579Z,2.28
2023-03-29T06:35:04.407Z,2.50
2023-03-29T06:37:57.724Z,2.72
2023-03-29T06:41:10.800Z,3.00
2023-03-29T06:44:18.341Z,2.90
2023-03-29T06:47:17.660Z,2.95
2023-03-29T06:50:03.404Z,2.65
2023-03-29T06:53:02.849Z,2.53
2023-03-29T06:55:51.334Z,3.28
2023-03-29T06:59:02.952Z,3.03
2023-03-29T07:01:57.023Z,3.33
2023-03-29T07:11:13.641Z,3.30
2023-03-29T07:14:13.853Z,3.10
2023-03-29T07:17:01.804Z,2.38
2023-03-29T07:19:57.329Z,2.80
2023-03-29T07:23:09.083Z,4.45
2023-03-29T07:25:54.282Z,4.30
2023-03-29T07:28:42.990Z,3.90
2023-03-29T07:31:40.298Z,4.10
2023-03-29T07:34:47.378Z,3.20
2023-03-29T07:37:42.323Z,3.30
2023-03-29T07:40:30.722Z,3.17
2023-03-29T07:43:15.558Z,2.60
2023-03-29T07:46:03.333Z,3.17
2023-03-29T07:48:50.264Z,3.10
2023-03-29T07:51:36.014Z,2.70
2023-03-29T07:54:25.640Z,4.38
2023-03-29T07:57:16.141Z,4.00
2023-03-29T08:00:12.179Z,3.45
2023-03-29T08:02:58.302Z,2.88
2023-03-29T08:05:44.601Z,2.90
2023-03-29T08:08:33.036Z,2.60
2023-03-29T08:11:24.567Z,2.60
2023-03-29T08:14:57.608Z,2.65
2023-03-29T08:17:48.155Z,2.88
2023-03-29T08:20:33.519Z,2.65
2023-03-29T08:23:21.289Z,2.85
2023-03-29T08:26:25.257Z,4.05
2023-03-29T08:29:11.089Z,3.47
2023-03-29T08:31:57.681Z,3.45
2023-03-29T08:34:43.249Z,2.72
2023-03-29T08:37:38.881Z,2.70
2023-03-29T08:40:29.886Z,2.60
2023-03-29T08:43:17.466Z,2.78
2023-03-29T08:46:34.583Z,3.60
2023-03-29T08:49:31.182Z,2.72
2023-03-29T08:52:30.484Z,3.03
2023-03-29T08:55:39.962Z,3.38
2023-03-29T08:58:40.019Z,2.80
2023-03-29T09:01:31.207Z,2.83
2023-03-29T09:04:19.661Z,2.15
2023-03-29T09:07:12.454Z,2.17
2023-03-29T09:10:06.542Z,2.40
2023-03-29T09:13:14.983Z,2.25
2023-03-29T09:16:21.020Z,2.33
2023-03-29T09:19:32.135Z,3.20
2023-03-29T09:22:57.061Z,2.50
2023-03-29T09:26:14.178Z,3.33
2023-03-29T09:29:41.470Z,2.92
2023-03-29T09:32:38.801Z,3.40
2023-03-29T09:35:37.146Z,3.08
2023-03-29T09:38:22.932Z,2.90
2023-03-29T09:41:27.168Z,2.95
2023-03-29T09:44:30.790Z,3.03
2023-03-29T09:47:26.588Z,2.35
2023-03-29T09:50:45.495Z,3.30
2023-03-29T09:53:31.738Z,3.83
2023-03-29T09:56:31.735Z,2.78
2023-03-29T09:59:26.891Z,4.03
2023-03-29T10:02:13.239Z,4.10
2023-03-29T10:05:03.428Z,4.53
2023-03-29T10:07:53.766Z,4.28
2023-03-29T10:10:38.504Z,5.15
2023-03-29T10:16:22.076Z,3.20
2023-03-29T10:19:24.240Z,3.50
2023-03-29T10:22:31.401Z,3.78
2023-03-29T10:25:17.775Z,2.60
2023-03-29T10:31:20.194Z,2.80
2023-03-29T10:34:06.502Z,2.17
2023-03-29T10:36:58.574Z,2.95
2023-03-29T10:39:48.363Z,3.28
2023-03-29T10:42:54.264Z,2.70
2023-03-29T10:45:39.267Z,3.15
2023-03-29T10:48:35.613Z,3.13
2023-03-29T10:51:24.464Z,3.08
2023-03-29T10:54:13.964Z,3.05
2023-03-29T10:57:06.471Z,2.85
2023-03-29T10:59:57.209Z,2.70
2023-03-29T11:03:07.921Z,2.60
2023-03-29T11:06:04.135Z,3.53
2023-03-29T11:09:02.531Z,2.40
2023-03-29T11:12:15.656Z,2.42
2023-03-29T11:15:52.789Z,2.05
2023-03-29T11:19:22.180Z,2.70
2023-03-29T11:22:49.718Z,3.40
2023-03-29T11:25:48.584Z,2.35
2023-03-29T11:28:49.390Z,2.35
2023-03-29T11:31:56.955Z,2.63
2023-03-29T11:34:57.147Z,2.88
2023-03-29T11:37:59.824Z,2.97
2023-03-29T11:41:10.712Z,2.35
2023-03-29T11:44:05.586Z,2.55
2023-03-29T11:47:06.839Z,3.20
2023-03-29T11:49:58.649Z,3.50
2023-03-29T11:52:52.848Z,3.38
2023-03-29T11:55:41.992Z,2.92
2023-03-29T11:58:34.923Z,2.88
2023-03-29T12:01:36.933Z,4.88
2023-03-29T12:04:33.467Z,3.83
2023-03-29T12:07:36.576Z,2.90
2023-03-29T12:10:34.118Z,3.40
2023-03-29T12:13:24.011Z,2.75
2023-03-29T12:16:47.753Z,3.17
2023-03-29T12:19:43.963Z,2.80
2023-03-29T12:22:29.076Z,3.38
2023-03-29T12:28:36.023Z,2.20
2023-03-29T12:31:39.366Z,2.50
2023-03-29T12:34:24.535Z,3.03
2023-03-29T12:37:35.755Z,3.00
2023-03-29T12:40:43.411Z,3.28
2023-03-29T12:44:03.429Z,2.67
2023-03-29T12:47:20.892Z,2.95
2023-03-29T12:50:06.473Z,3.25
2023-03-29T12:52:51.402Z,2.80
2023-03-29T12:55:42.040Z,3.47
2023-03-29T12:58:42.406Z,3.15
2023-03-29T13:01:28.680Z,4.10
2023-03-29T13:04:21.944Z,2.88
2023-03-29T13:07:14.408Z,2.38
2023-03-29T13:10:08.336Z,3.15
2023-03-29T13:12:54.077Z,2.83
2023-03-29T13:15:39.314Z,2.80
2023-03-29T13:19:02.118Z,2.88
2023-03-29T13:21:58.501Z,3.08
2023-03-29T13:25:18.479Z,3.33
2023-03-29T13:28:18.629Z,2.55
2023-03-29T13:31:49.738Z,3.30
2023-03-29T13:34:49.896Z,2.65
2023-03-29T13:37:52.538Z,2.53
2023-03-29T13:40:40.852Z,2.35
2023-03-29T13:43:40.720Z,2.60
2023-03-29T13:46:41.922Z,2.75
2023-03-29T13:49:30.405Z,2.88
2023-03-29T13:52:23.676Z,2.10
2023-03-29T13:55:21.049Z,2.92
2023-03-29T13:58:09.569Z,3.33
2023-03-29T14:01:00.688Z,2.78
2023-03-29T14:03:48.878Z,2.72
2023-03-29T14:06:36.747Z,2.28
2023-03-29T14:09:30.862Z,2.15
2023-03-29T14:12:16.975Z,2.45
2023-03-29T14:15:05.426Z,2.50
2023-03-29T14:17:54.872Z,3.72
2023-03-29T14:20:43.346Z,3.53
2023-03-29T14:23:30.329Z,2.53
2023-03-29T14:26:21.177Z,2.70
2023-03-29T14:29:09.981Z,2.67
2023-03-29T14:31:54.734Z,2.22
2023-03-29T14:37:27.643Z,1.92
2023-03-29T14:40:19.331Z,2.33
2023-03-29T14:43:07.336Z,2.50
2023-03-29T14:45:52.516Z,2.03
2023-03-29T14:48:38.228Z,2.40
2023-03-29T14:51:28.103Z,2.55
2023-03-29T14:54:26.569Z,2.40
2023-03-29T14:57:17.773Z,2.20
2023-03-29T15:00:14.194Z,2.25
2023-03-29T15:03:01.448Z,2.30
2023-03-29T15:06:06.670Z,2.67
2023-03-29T15:09:02.062Z,2.53
2023-03-29T15:11:53.442Z,2.60
2023-03-29T15:14:38.437Z,2.20
2023-03-29T15:20:38.232Z,2.67
2023-03-29T15:23:25.644Z,2.50
2023-03-29T15:26:20.990Z,2.33
2023-03-29T15:29:22.581Z,2.33
2023-03-29T15:32:09.562Z,2.22
2023-03-29T15:35:04.359Z,2.88
2023-03-29T15:37:51.389Z,2.72
2023-03-29T15:40:36.247Z,2.83
2023-03-29T15:43:22.127Z,2.92
2023-03-29T15:46:06.933Z,2.85
2023-03-29T15:51:36.361Z,2.33
2023-03-29T15:54:21.937Z,2.15
2023-03-29T15:57:11.839Z,2.60
2023-03-29T15:59:57.135Z,2.40
2023-03-29T16:02:42.480Z,3.90
2023-03-29T16:05:27.729Z,4.00
2023-03-29T16:08:13.271Z,3.45
2023-03-29T16:10:58.415Z,3.80
2023-03-29T16:13:43.487Z,3.95
2023-03-29T16:19:13.511Z,4.28
2023-03-29T16:21:59.904Z,3.28
2023-03-29T16:24:44.958Z,3.30
2023-03-29T16:30:15.978Z,3.65
2023-03-29T16:33:05.573Z,3.88
2023-03-29T16:35:51.106Z,5.15
2023-03-29T16:41:20.880Z,8.63
2023-03-29T16:44:06.490Z,8.60
2023-03-29T16:46:57.151Z,8.00
2023-03-29T16:49:55.193Z,7.45
2023-03-29T16:52:40.448Z,8.27
2023-03-29T16:55:25.067Z,7.88
2023-03-29T16:58:09.970Z,9.38
2023-03-29T17:03:42.245Z,6.50
2023-03-29T17:06:27.316Z,7.18
2023-03-29T17:09:12.133Z,8.00
2023-03-29T17:11:57.120Z,8.63
2023-03-29T17:17:27.429Z,7.63
2023-03-29T17:20:12.369Z,10.65
2023-03-29T17:25:42.940Z,17.02
2023-03-29T17:28:27.900Z,20.00
2023-03-29T17:33:57.738Z,17.83
2023-03-29T17:36:45.204Z,19.60
2023-03-29T17:39:30.496Z,20.10
2023-03-29T17:42:16.744Z,18.05
2023-03-29T17:45:01.950Z,17.00
2023-03-29T17:50:31.610Z,10.93
2023-03-29T17:53:16.921Z,11.65
2023-03-29T17:56:01.778Z,12.70
2023-03-29T17:58:48.352Z,14.60
2023-03-29T18:01:33.084Z,16.00
2023-03-29T18:07:03.231Z,24.13
2023-03-29T18:09:49.238Z,29.58
2023-03-29T18:12:34.440Z,26.23
2023-03-29T18:15:20.254Z,21.38
2023-03-29T18:18:04.963Z,21.20
2023-03-29T18:23:37.997Z,21.05
2023-03-29T18:26:22.967Z,22.30
2023-03-29T18:31:55.067Z,18.73
2023-03-29T18:34:39.661Z,19.08
2023-03-29T18:40:10.010Z,17.92
2023-03-29T18:42:54.912Z,18.15
2023-03-29T18:45:40.024Z,18.35
2023-03-29T18:48:25.433Z,21.42
2023-03-29T18:51:12.034Z,25.48
2023-03-29T18:53:57.158Z,26.38
2023-03-29T18:56:42.786Z,25.63
2023-03-29T18:59:27.858Z,24.08
2023-03-29T19:02:13.564Z,23.80
2023-03-29T19:04:58.225Z,24.92
2023-03-29T19:10:27.719Z,18.00
2023-03-29T19:13:12.686Z,19.30
2023-03-29T19:15:58.215Z,16.85
2023-03-29T19:18:43.329Z,16.83
2023-03-29T19:21:30.930Z,14.98
2023-03-29T19:24:16.162Z,15.55
2023-03-29T19:29:46.465Z,13.35
2023-03-29T19:32:33.196Z,14.88
2023-03-29T19:35:18.531Z,15.23
2023-03-29T19:38:06.761Z,14.35
2023-03-29T19:40:51.932Z,13.35
2023-03-29T19:43:39.465Z,11.73
2023-03-29T19:46:24.787Z,9.05
2023-03-29T19:51:57.646Z,8.15
2023-03-29T19:54:43.556Z,8.63
2023-03-29T19:57:28.246Z,8.57
2023-03-29T20:00:18.022Z,8.38
2023-03-29T20:03:02.710Z,9.00
2023-03-29T20:08:32.018Z,11.02
2023-03-29T20:14:04.804Z,8.88
2023-03-29T20:16:50.191Z,9.63
2023-03-29T20:19:35.905Z,10.40
2023-03-29T20:22:21.002Z,11.20
2023-03-29T20:25:06.005Z,13.70
2023-03-29T20:27:50.979Z,19.30
2023-03-29T20:30:36.007Z,20.85
2023-03-29T20:33:21.392Z,19.83
2023-03-29T20:38:51.804Z,17.23
2023-03-29T20:41:37.630Z,14.02
2023-03-29T20:44:25.680Z,11.93
2023-03-29T20:47:13.483Z,9.63
2023-03-29T20:49:58.136Z,7.78
2023-03-29T20:52:43.045Z,7.97
2023-03-29T20:55:29.698Z,6.57
2023-03-29T20:58:15.173Z,6.60
2023-03-29T21:00:59.780Z,6.40
2023-03-29T21:03:44.788Z,6.10
2023-03-29T21:09:14.293Z,8.88
2023-03-29T21:11:59.240Z,12.38
2023-03-29T21:14:44.122Z,10.35
2023-03-29T21:17:29.268Z,10.38
2023-03-29T21:20:14.924Z,8.60
2023-03-29T21:23:00.400Z,8.75
2023-03-29T21:25:45.694Z,9.68
2023-03-29T21:28:30.296Z,9.65
2023-03-29T21:31:15.378Z,12.57
2023-03-29T21:34:00.373Z,11.05
2023-03-29T21:39:30.154Z,9.88
2023-03-29T21:42:14.860Z,8.07
2023-03-29T21:45:01.161Z,8.20
2023-03-29T21:47:45.998Z,8.30
2023-03-29T21:53:19.147Z,8.95
2023-03-29T21:56:04.393Z,8.45
2023-03-29T22:01:33.813Z,8.10
2023-03-29T22:04:33.120Z,9.40
2023-03-29T22:07:25.847Z,8.35
2023-03-29T22:10:11.976Z,7.45
2023-03-29T22:12:56.759Z,7.85
2023-03-29T22:18:29.451Z,6.93
2023-03-29T22:21:29.845Z,8.30
2023-03-29T22:24:15.674Z,8.45
2023-03-29T22:27:00.397Z,11.82
2023-03-29T22:29:45.465Z,13.85
2023-03-29T22:32:31.338Z,14.93
2023-03-29T22:35:16.225Z,19.10
2023-03-29T22:38:01.187Z,25.40
2023-03-29T22:43:31.556Z,19.95
2023-03-29T22:46:16.324Z,15.23
2023-03-29T22:49:01.266Z,12.55
2023-03-29T22:51:46.184Z,9.18
2023-03-29T22:54:31.286Z,9.85
2023-03-29T22:57:16.020Z,10.27
2023-03-29T23:00:01.247Z,9.40
2023-03-29T23:02:45.934Z,9.45
2023-03-29T23:05:30.542Z,9.23
2023-03-29T23:08:15.812Z,7.68
2023-03-29T23:11:02.833Z,6.28
2023-03-29T23:13:48.088Z,6.50
2023-03-29T23:16:33.184Z,6.47
2023-03-29T23:22:02.961Z,5.53
2023-03-29T23:24:48.054Z,6.15
2023-03-29T23:27:32.734Z,6.30
2023-03-29T23:30:21.106Z,5.97
2023-03-29T23:33:06.317Z,5.65
2023-03-29T23:35:51.497Z,5.88
2023-03-29T23:38:38.229Z,7.13
2023-03-29T23:41:27.795Z,7.10
2023-03-29T23:44:12.192Z,6.90
2023-03-29T23:46:58.288Z,7.50
2023-03-29T23:49:44.672Z,11.23
2023-03-29T23:52:34.464Z,11.45
2023-03-29T23:55:19.678Z,12.02
2023-03-29T23:58:04.180Z,10.82
